sensor_id;sensor_type;location;lat;lon;timestamp;pressure;altitude;pressure_sealevel;temperature;humidity
47815;BME280;33579;50.058;18.130;2023-04-07T00:00:36;99319.50;;;3.48;100.00
47815;BME280;33579;50.058;18.130;2023-04-07T00:01:38;99320.13;;;3.53;100.00
47815;BME280;33579;50.058;18.130;2023-04-07T00:02:40;99316.34;;;3.59;100.00
47815;BME280;33579;50.058;18.130;2023-04-07T00:03:44;99316.34;;;3.59;100.00
47815;BME280;33579;50.058;18.130;2023-04-07T00:04:46;99318.16;;;3.57;100.00
47815;BME280;33579;50.058;18.130;2023-04-07T00:05:48;99313.13;;;3.54;100.00
47815;BME280;33579;50.058;18.130;2023-04-07T00:06:49;99319.00;;;3.57;100.00
47815;BME280;33579;50.058;18.130;2023-04-07T00:07:51;99309.28;;;3.61;100.00
47815;BME280;33579;50.058;18.130;2023-04-07T00:08:57;99310.19;;;3.60;100.00
47815;BME280;33579;50.058;18.130;2023-04-07T00:09:59;99313.56;;;3.62;100.00
47815;BME280;33579;50.058;18.130;2023-04-07T00:11:00;99318.41;;;3.68;100.00
47815;BME280;33579;50.058;18.130;2023-04-07T00:12:02;99315.03;;;3.66;100.00
47815;BME280;33579;50.058;18.130;2023-04-07T00:13:04;99312.44;;;3.66;100.00
47815;BME280;33579;50.058;18.130;2023-04-07T00:14:05;99318.41;;;3.68;100.00
47815;BME280;33579;50.058;18.130;2023-04-07T00:15:07;99311.63;;;3.65;100.00
47815;BME280;33579;50.058;18.130;2023-04-07T00:16:09;99311.94;;;3.59;100.00
47815;BME280;33579;50.058;18.130;2023-04-07T00:17:11;99308.59;;;3.57;100.00
47815;BME280;33579;50.058;18.130;2023-04-07T00:18:12;99310.09;;;3.61;100.00
47815;BME280;33579;50.058;18.130;2023-04-07T00:19:14;99305.81;;;3.60;100.00
47815;BME280;33579;50.058;18.130;2023-04-07T00:20:15;99298.75;;;3.62;100.00
47815;BME280;33579;50.058;18.130;2023-04-07T00:21:17;99305.94;;;3.59;100.00
47815;BME280;33579;50.058;18.130;2023-04-07T00:22:18;99302.97;;;3.49;100.00
47815;BME280;33579;50.058;18.130;2023-04-07T00:23:20;99305.59;;;3.33;100.00
47815;BME280;33579;50.058;18.130;2023-04-07T00:24:21;99300.91;;;3.23;100.00
47815;BME280;33579;50.058;18.130;2023-04-07T00:25:34;99293.13;;;3.23;100.00
47815;BME280;33579;50.058;18.130;2023-04-07T00:26:36;99299.31;;;3.21;100.00
47815;BME280;33579;50.058;18.130;2023-04-07T00:27:38;99292.00;;;3.12;100.00
47815;BME280;33579;50.058;18.130;2023-04-07T00:28:39;99291.94;;;3.13;100.00
47815;BME280;33579;50.058;18.130;2023-04-07T00:29:41;99294.53;;;3.13;100.00
47815;BME280;33579;50.058;18.130;2023-04-07T00:30:43;99288.41;;;3.14;100.00
47815;BME280;33579;50.058;18.130;2023-04-07T00:31:44;99292.25;;;3.23;100.00
47815;BME280;33579;50.058;18.130;2023-04-07T00:32:46;99296.47;;;3.26;100.00
47815;BME280;33579;50.058;18.130;2023-04-07T00:33:48;99291.34;;;3.24;100.00
47815;BME280;33579;50.058;18.130;2023-04-07T00:34:49;99287.56;;;3.30;100.00
47815;BME280;33579;50.058;18.130;2023-04-07T00:35:51;99287.25;;;3.20;100.00
47815;BME280;33579;50.058;18.130;2023-04-07T00:36:52;99285.31;;;3.23;100.00
47815;BME280;33579;50.058;18.130;2023-04-07T00:37:54;99287.00;;;3.25;100.00
47815;BME280;33579;50.058;18.130;2023-04-07T00:38:56;99286.75;;;3.13;100.00
47815;BME280;33579;50.058;18.130;2023-04-07T00:39:57;99279.75;;;3.14;100.00
47815;BME280;33579;50.058;18.130;2023-04-07T00:40:59;99278.25;;;3.09;100.00
47815;BME280;33579;50.058;18.130;2023-04-07T00:42:02;99279.00;;;3.12;100.00
47815;BME280;33579;50.058;18.130;2023-04-07T00:43:04;99277.59;;;3.06;100.00
47815;BME280;33579;50.058;18.130;2023-04-07T00:44:06;99281.78;;;3.08;100.00
47815;BME280;33579;50.058;18.130;2023-04-07T00:45:08;99273.06;;;3.09;100.00
47815;BME280;33579;50.058;18.130;2023-04-07T00:46:09;99280.44;;;3.17;100.00
47815;BME280;33579;50.058;18.130;2023-04-07T00:47:11;99278.44;;;3.22;100.00
47815;BME280;33579;50.058;18.130;2023-04-07T00:48:13;99272.06;;;3.12;100.00
47815;BME280;33579;50.058;18.130;2023-04-07T00:49:15;99274.00;;;3.08;100.00
47815;BME280;33579;50.058;18.130;2023-04-07T00:50:17;99268.88;;;3.07;100.00
47815;BME280;33579;50.058;18.130;2023-04-07T00:51:20;99270.41;;;3.11;100.00
47815;BME280;33579;50.058;18.130;2023-04-07T00:52:23;99273.66;;;2.99;100.00
47815;BME280;33579;50.058;18.130;2023-04-07T00:53:24;99264.19;;;2.98;100.00
47815;BME280;33579;50.058;18.130;2023-04-07T00:54:26;99268.47;;;2.99;100.00
47815;BME280;33579;50.058;18.130;2023-04-07T00:55:28;99265.25;;;2.93;100.00
47815;BME280;33579;50.058;18.130;2023-04-07T00:56:29;99267.97;;;2.92;100.00
47815;BME280;33579;50.058;18.130;2023-04-07T00:57:31;99266.28;;;2.91;100.00
47815;BME280;33579;50.058;18.130;2023-04-07T00:58:33;99264.59;;;2.90;100.00
47815;BME280;33579;50.058;18.130;2023-04-07T00:59:35;99263.50;;;2.78;100.00
47815;BME280;33579;50.058;18.130;2023-04-07T01:00:43;99253.09;;;2.78;100.00
47815;BME280;33579;50.058;18.130;2023-04-07T01:01:52;99257.97;;;2.84;100.00
47815;BME280;33579;50.058;18.130;2023-04-07T01:03:05;99256.22;;;2.85;100.00
47815;BME280;33579;50.058;18.130;2023-04-07T01:04:32;99255.78;;;2.92;100.00
47815;BME280;33579;50.058;18.130;2023-04-07T01:05:41;99254.78;;;2.95;100.00
47815;BME280;33579;50.058;18.130;2023-04-07T01:06:49;99255.13;;;2.89;100.00
47815;BME280;33579;50.058;18.130;2023-04-07T01:08:16;99251.59;;;2.74;100.00
47815;BME280;33579;50.058;18.130;2023-04-07T01:09:26;99251.34;;;2.78;100.00
47815;BME280;33579;50.058;18.130;2023-04-07T01:10:51;99249.16;;;2.71;100.00
47815;BME280;33579;50.058;18.130;2023-04-07T01:12:01;99245.03;;;2.66;100.00
47815;BME280;33579;50.058;18.130;2023-04-07T01:13:28;99244.72;;;2.73;100.00
47815;BME280;33579;50.058;18.130;2023-04-07T01:14:49;99249.59;;;2.79;100.00
47815;BME280;33579;50.058;18.130;2023-04-07T01:16:22;99251.00;;;2.85;100.00
47815;BME280;33579;50.058;18.130;2023-04-07T01:17:26;99246.56;;;2.87;100.00
47815;BME280;33579;50.058;18.130;2023-04-07T01:18:30;99246.56;;;2.87;100.00
47815;BME280;33579;50.058;18.130;2023-04-07T01:19:39;99244.13;;;2.84;100.00
47815;BME280;33579;50.058;18.130;2023-04-07T01:20:49;99239.00;;;2.82;100.00
47815;BME280;33579;50.058;18.130;2023-04-07T01:21:52;99235.00;;;2.76;100.00
47815;BME280;33579;50.058;18.130;2023-04-07T01:23:01;99235.09;;;2.75;100.00
47815;BME280;33579;50.058;18.130;2023-04-07T01:25:59;99231.81;;;2.71;100.00
47815;BME280;33579;50.058;18.130;2023-04-07T01:27:35;99238.44;;;2.77;100.00
47815;BME280;33579;50.058;18.130;2023-04-07T01:29:44;99232.81;;;2.69;100.00
47815;BME280;33579;50.058;18.130;2023-04-07T01:30:46;99236.00;;;2.74;100.00
47815;BME280;33579;50.058;18.130;2023-04-07T01:31:49;99234.47;;;2.70;100.00
47815;BME280;33579;50.058;18.130;2023-04-07T01:32:53;99239.16;;;2.63;100.00
47815;BME280;33579;50.058;18.130;2023-04-07T01:33:58;99230.06;;;2.72;100.00
47815;BME280;33579;50.058;18.130;2023-04-07T01:35:01;99242.13;;;2.73;100.00
47815;BME280;33579;50.058;18.130;2023-04-07T01:36:06;99236.66;;;2.61;100.00
47815;BME280;33579;50.058;18.130;2023-04-07T01:37:08;99239.34;;;2.60;100.00
47815;BME280;33579;50.058;18.130;2023-04-07T01:38:11;99226.03;;;2.66;100.00
47815;BME280;33579;50.058;18.130;2023-04-07T01:39:14;99229.53;;;2.65;100.00
47815;BME280;33579;50.058;18.130;2023-04-07T01:40:16;99232.22;;;2.63;100.00
47815;BME280;33579;50.058;18.130;2023-04-07T01:41:18;99230.13;;;2.54;100.00
47815;BME280;33579;50.058;18.130;2023-04-07T01:42:21;99234.91;;;2.62;100.00
47815;BME280;33579;50.058;18.130;2023-04-07T01:43:24;99229.22;;;2.71;100.00
47815;BME280;33579;50.058;18.130;2023-04-07T01:44:27;99234.00;;;2.79;100.00
47815;BME280;33579;50.058;18.130;2023-04-07T01:45:31;99233.81;;;2.82;100.00
47815;BME280;33579;50.058;18.130;2023-04-07T01:46:34;99237.09;;;2.86;100.00
47815;BME280;33579;50.058;18.130;2023-04-07T01:47:37;99236.41;;;2.82;100.00
47815;BME280;33579;50.058;18.130;2023-04-07T01:48:39;99237.50;;;2.78;100.00
47815;BME280;33579;50.058;18.130;2023-04-07T01:49:42;99236.59;;;2.79;100.00
47815;BME280;33579;50.058;18.130;2023-04-07T01:50:46;99233.81;;;2.82;100.00
47815;BME280;33579;50.058;18.130;2023-04-07T01:51:49;99236.34;;;2.84;100.00
47815;BME280;33579;50.058;18.130;2023-04-07T01:52:51;99236.41;;;2.82;100.00
47815;BME280;33579;50.058;18.130;2023-04-07T01:53:54;99231.41;;;2.79;100.00
47815;BME280;33579;50.058;18.130;2023-04-07T01:54:57;99235.50;;;2.67;100.00
47815;BME280;33579;50.058;18.130;2023-04-07T01:55:59;99228.72;;;2.64;100.00
47815;BME280;33579;50.058;18.130;2023-04-07T01:57:01;99229.63;;;2.63;100.00
47815;BME280;33579;50.058;18.130;2023-04-07T01:58:04;99234.59;;;2.68;100.00
47815;BME280;33579;50.058;18.130;2023-04-07T01:59:06;99230.13;;;2.70;100.00
47815;BME280;33579;50.058;18.130;2023-04-07T02:00:08;99226.94;;;2.65;100.00
47815;BME280;33579;50.058;18.130;2023-04-07T02:01:15;99229.53;;;2.65;100.00
47815;BME280;33579;50.058;18.130;2023-04-07T02:02:17;99222.53;;;2.67;100.00
47815;BME280;33579;50.058;18.130;2023-04-07T02:03:23;99221.50;;;2.70;100.00
47815;BME280;33579;50.058;18.130;2023-04-07T02:04:32;99225.00;;;2.69;100.00
47815;BME280;33579;50.058;18.130;2023-04-07T02:05:37;99223.28;;;2.69;100.00
47815;BME280;33579;50.058;18.130;2023-04-07T02:06:51;99222.59;;;2.65;100.00
47815;BME280;33579;50.058;18.130;2023-04-07T02:08:01;99223.78;;;2.76;100.00
47815;BME280;33579;50.058;18.130;2023-04-07T02:09:06;99214.63;;;2.69;100.00
47815;BME280;33579;50.058;18.130;2023-04-07T02:10:12;99221.34;;;2.73;100.00
47815;BME280;33579;50.058;18.130;2023-04-07T02:11:17;99222.84;;;2.77;100.00
47815;BME280;33579;50.058;18.130;2023-04-07T02:12:21;99221.75;;;2.81;100.00
47815;BME280;33579;50.058;18.130;2023-04-07T02:13:36;99223.28;;;2.85;100.00
47815;BME280;33579;50.058;18.130;2023-04-07T02:14:38;99219.50;;;2.91;100.00
47815;BME280;33579;50.058;18.130;2023-04-07T02:15:43;99224.44;;;2.95;100.00
47815;BME280;33579;50.058;18.130;2023-04-07T02:16:45;99219.41;;;2.92;100.00
47815;BME280;33579;50.058;18.130;2023-04-07T02:17:51;99224.84;;;2.88;100.00
47815;BME280;33579;50.058;18.130;2023-04-07T02:18:53;99218.72;;;2.89;100.00
47815;BME280;33579;50.058;18.130;2023-04-07T02:19:56;99215.97;;;2.92;100.00
47815;BME280;33579;50.058;18.130;2023-04-07T02:20:59;99220.09;;;2.96;100.00
47815;BME280;33579;50.058;18.130;2023-04-07T02:22:03;99214.72;;;2.99;100.00
47815;BME280;33579;50.058;18.130;2023-04-07T02:23:08;99213.78;;;3.00;100.00
47815;BME280;33579;50.058;18.130;2023-04-07T02:24:10;99223.25;;;3.01;100.00
47815;BME280;33579;50.058;18.130;2023-04-07T02:25:24;99224.28;;;2.99;100.00
47815;BME280;33579;50.058;18.130;2023-04-07T02:26:27;99219.66;;;2.88;100.00
47815;BME280;33579;50.058;18.130;2023-04-07T02:27:30;99220.31;;;2.75;100.00
47815;BME280;33579;50.058;18.130;2023-04-07T02:28:32;99216.72;;;2.78;100.00
47815;BME280;33579;50.058;18.130;2023-04-07T02:29:33;99219.59;;;2.89;100.00
47815;BME280;33579;50.058;18.130;2023-04-07T02:30:35;99221.09;;;2.93;100.00
47815;BME280;33579;50.058;18.130;2023-04-07T02:31:37;99219.09;;;2.99;100.00
47815;BME280;33579;50.058;18.130;2023-04-07T02:32:39;99221.50;;;3.02;100.00
47815;BME280;33579;50.058;18.130;2023-04-07T02:33:41;99220.34;;;2.91;100.00
47815;BME280;33579;50.058;18.130;2023-04-07T02:34:42;99217.22;;;2.85;100.00
47815;BME280;33579;50.058;18.130;2023-04-07T02:35:44;99213.63;;;2.87;100.00
47815;BME280;33579;50.058;18.130;2023-04-07T02:36:45;99218.59;;;2.92;100.00
47815;BME280;33579;50.058;18.130;2023-04-07T02:37:48;99214.31;;;2.91;100.00
47815;BME280;33579;50.058;18.130;2023-04-07T02:38:49;99225.47;;;2.93;100.00
47815;BME280;33579;50.058;18.130;2023-04-07T02:39:51;99212.22;;;2.98;100.00
47815;BME280;33579;50.058;18.130;2023-04-07T02:40:53;99213.03;;;2.98;100.00
47815;BME280;33579;50.058;18.130;2023-04-07T02:41:55;99218.91;;;3.02;100.00
47815;BME280;33579;50.058;18.130;2023-04-07T02:42:57;99218.91;;;3.02;100.00
47815;BME280;33579;50.058;18.130;2023-04-07T02:43:59;99211.19;;;3.00;100.00
47815;BME280;33579;50.058;18.130;2023-04-07T02:45:01;99214.63;;;3.01;100.00
47815;BME280;33579;50.058;18.130;2023-04-07T02:46:04;99212.72;;;3.04;100.00
47815;BME280;33579;50.058;18.130;2023-04-07T02:47:05;99211.78;;;3.05;100.00
47815;BME280;33579;50.058;18.130;2023-04-07T02:48:07;99211.34;;;2.97;100.00
47815;BME280;33579;50.058;18.130;2023-04-07T02:49:10;99207.75;;;3.00;100.00
47815;BME280;33579;50.058;18.130;2023-04-07T02:50:12;99206.22;;;2.95;100.00
47815;BME280;33579;50.058;18.130;2023-04-07T02:51:13;99208.09;;;2.93;100.00
47815;BME280;33579;50.058;18.130;2023-04-07T02:52:15;99207.41;;;2.90;100.00
47815;BME280;33579;50.058;18.130;2023-04-07T02:53:16;99208.25;;;2.90;100.00
47815;BME280;33579;50.058;18.130;2023-04-07T02:54:18;99203.63;;;2.95;100.00
47815;BME280;33579;50.058;18.130;2023-04-07T02:55:20;99208.84;;;2.95;100.00
47815;BME280;33579;50.058;18.130;2023-04-07T02:56:21;99205.25;;;2.98;100.00
47815;BME280;33579;50.058;18.130;2023-04-07T02:57:23;99205.34;;;2.97;100.00
47815;BME280;33579;50.058;18.130;2023-04-07T02:58:28;99205.75;;;2.89;100.00
47815;BME280;33579;50.058;18.130;2023-04-07T02:59:30;99206.59;;;2.89;100.00
47815;BME280;33579;50.058;18.130;2023-04-07T03:00:33;99204.81;;;2.90;100.00
47815;BME280;33579;50.058;18.130;2023-04-07T03:01:47;99205.09;;;2.85;100.00
47815;BME280;33579;50.058;18.130;2023-04-07T03:02:50;99203.16;;;2.73;100.00
47815;BME280;33579;50.058;18.130;2023-04-07T03:03:52;99205.16;;;2.67;100.00
47815;BME280;33579;50.058;18.130;2023-04-07T03:04:57;99207.56;;;2.71;100.00
47815;BME280;33579;50.058;18.130;2023-04-07T03:06:01;99209.59;;;2.65;100.00
47815;BME280;33579;50.058;18.130;2023-04-07T03:07:04;99210.03;;;2.74;100.00
47815;BME280;33579;50.058;18.130;2023-04-07T03:08:07;99205.75;;;2.73;100.00
47815;BME280;33579;50.058;18.130;2023-04-07T03:09:08;99206.41;;;2.76;100.00
47815;BME280;33579;50.058;18.130;2023-04-07T03:10:10;99201.88;;;2.80;100.00
47815;BME280;33579;50.058;18.130;2023-04-07T03:11:11;99209.50;;;2.83;100.00
47815;BME280;33579;50.058;18.130;2023-04-07T03:12:13;99204.66;;;2.77;100.00
47815;BME280;33579;50.058;18.130;2023-04-07T03:13:15;99203.16;;;2.73;100.00
47815;BME280;33579;50.058;18.130;2023-04-07T03:14:16;99207.44;;;2.74;100.00
47815;BME280;33579;50.058;18.130;2023-04-07T03:15:21;99207.19;;;2.78;100.00
47815;BME280;33579;50.058;18.130;2023-04-07T03:16:24;99207.34;;;2.75;100.00
47815;BME280;33579;50.058;18.130;2023-04-07T03:17:33;99211.19;;;2.68;100.00
47815;BME280;33579;50.058;18.130;2023-04-07T03:18:35;99211.34;;;2.65;100.00
47815;BME280;33579;50.058;18.130;2023-04-07T03:19:38;99217.16;;;2.70;100.00
47815;BME280;33579;50.058;18.130;2023-04-07T03:20:42;99215.47;;;2.69;100.00
47815;BME280;33579;50.058;18.130;2023-04-07T03:21:45;99206.94;;;2.67;100.00
47815;BME280;33579;50.058;18.130;2023-04-07T03:22:46;99216.28;;;2.70;100.00
47815;BME280;33579;50.058;18.130;2023-04-07T03:23:59;99217.38;;;2.65;100.00
47815;BME280;33579;50.058;18.130;2023-04-07T03:25:00;99220.00;;;2.65;100.00
47815;BME280;33579;50.058;18.130;2023-04-07T03:26:02;99221.41;;;2.71;100.00
47815;BME280;33579;50.058;18.130;2023-04-07T03:27:08;99216.72;;;2.62;100.00
47815;BME280;33579;50.058;18.130;2023-04-07T03:28:15;99219.66;;;2.56;100.00
47815;BME280;33579;50.058;18.130;2023-04-07T03:29:16;99212.63;;;2.58;100.00
47815;BME280;33579;50.058;18.130;2023-04-07T03:30:18;99209.69;;;2.48;100.00
47815;BME280;33579;50.058;18.130;2023-04-07T03:31:20;99208.91;;;2.46;100.00
47815;BME280;33579;50.058;18.130;2023-04-07T03:32:24;99219.16;;;2.49;100.00
47815;BME280;33579;50.058;18.130;2023-04-07T03:33:26;99217.97;;;2.55;100.00
47815;BME280;33579;50.058;18.130;2023-04-07T03:34:28;99213.53;;;2.57;100.00
47815;BME280;33579;50.058;18.130;2023-04-07T03:35:32;99215.78;;;2.63;100.00
47815;BME280;33579;50.058;18.130;2023-04-07T03:36:33;99212.03;;;2.69;100.00
47815;BME280;33579;50.058;18.130;2023-04-07T03:37:38;99222.28;;;2.72;100.00
47815;BME280;33579;50.058;18.130;2023-04-07T03:38:48;99215.72;;;2.64;100.00
47815;BME280;33579;50.058;18.130;2023-04-07T03:39:52;99213.16;;;2.47;100.00
47815;BME280;33579;50.058;18.130;2023-04-07T03:40:58;99217.78;;;2.42;100.00
47815;BME280;33579;50.058;18.130;2023-04-07T03:42:00;99210.16;;;2.38;100.00
47815;BME280;33579;50.058;18.130;2023-04-07T03:43:05;99218.44;;;2.29;100.00
47815;BME280;33579;50.058;18.130;2023-04-07T03:44:06;99213.81;;;2.34;100.00
47815;BME280;33579;50.058;18.130;2023-04-07T03:45:10;99212.88;;;2.19;100.00
47815;BME280;33579;50.058;18.130;2023-04-07T03:46:18;99211.09;;;2.20;100.00
47815;BME280;33579;50.058;18.130;2023-04-07T03:47:20;99213.88;;;2.17;100.00
47815;BME280;33579;50.058;18.130;2023-04-07T03:48:27;99203.19;;;2.23;100.00
47815;BME280;33579;50.058;18.130;2023-04-07T03:49:42;99207.22;;;2.29;100.00
47815;BME280;33579;50.058;18.130;2023-04-07T03:50:44;99199.84;;;2.37;100.00
47815;BME280;33579;50.058;18.130;2023-04-07T03:51:49;99199.84;;;2.37;100.00
47815;BME280;33579;50.058;18.130;2023-04-07T03:52:52;99199.84;;;2.37;100.00
47815;BME280;33579;50.058;18.130;2023-04-07T03:53:58;99194.59;;;2.38;100.00
47815;BME280;33579;50.058;18.130;2023-04-07T03:55:07;99183.84;;;2.45;100.00
47815;BME280;33579;50.058;18.130;2023-04-07T03:56:09;99193.06;;;2.50;100.00
47815;BME280;33579;50.058;18.130;2023-04-07T03:57:18;99187.88;;;2.50;100.00
47815;BME280;33579;50.058;18.130;2023-04-07T03:58:21;99190.22;;;2.55;100.00
47815;BME280;33579;50.058;18.130;2023-04-07T03:59:24;99187.06;;;2.50;100.00
47815;BME280;33579;50.058;18.130;2023-04-07T04:00:33;99178.41;;;2.49;100.00
47815;BME280;33579;50.058;18.130;2023-04-07T04:01:40;99178.91;;;2.56;100.00
47815;BME280;33579;50.058;18.130;2023-04-07T04:02:48;99181.53;;;2.56;100.00
47815;BME280;33579;50.058;18.130;2023-04-07T04:03:53;99184.13;;;2.56;100.00
47815;BME280;33579;50.058;18.130;2023-04-07T04:04:58;99178.34;;;2.51;100.00
47815;BME280;33579;50.058;18.130;2023-04-07T04:06:00;99185.38;;;2.49;100.00
47815;BME280;33579;50.058;18.130;2023-04-07T04:07:04;99190.16;;;2.57;100.00
47815;BME280;33579;50.058;18.130;2023-04-07T04:08:19;99183.53;;;2.51;100.00
47815;BME280;33579;50.058;18.130;2023-04-07T04:09:20;99190.56;;;2.49;100.00
47815;BME280;33579;50.058;18.130;2023-04-07T04:10:23;99184.59;;;2.47;100.00
47815;BME280;33579;50.058;18.130;2023-04-07T04:11:27;99188.72;;;2.51;100.00
47815;BME280;33579;50.058;18.130;2023-04-07T04:12:35;99188.72;;;2.51;100.00
47815;BME280;33579;50.058;18.130;2023-04-07T04:13:41;99187.56;;;2.57;100.00
47815;BME280;33579;50.058;18.130;2023-04-07T04:14:43;99192.50;;;2.45;100.00
47815;BME280;33579;50.058;18.130;2023-04-07T04:15:47;99190.72;;;2.46;100.00
47815;BME280;33579;50.058;18.130;2023-04-07T04:16:50;99192.25;;;2.50;100.00
47815;BME280;33579;50.058;18.130;2023-04-07T04:18:17;99191.91;;;2.56;100.00
47815;BME280;33579;50.058;18.130;2023-04-07T04:19:19;99194.34;;;2.59;100.00
47815;BME280;33579;50.058;18.130;2023-04-07T04:20:21;99196.84;;;2.61;100.00
47815;BME280;33579;50.058;18.130;2023-04-07T04:21:24;99193.44;;;2.60;100.00
47815;BME280;33579;50.058;18.130;2023-04-07T04:22:26;99206.50;;;2.59;100.00
47815;BME280;33579;50.058;18.130;2023-04-07T04:23:30;99209.03;;;2.60;100.00
47815;BME280;33579;50.058;18.130;2023-04-07T04:24:33;99203.66;;;2.63;100.00
47815;BME280;33579;50.058;18.130;2023-04-07T04:25:36;99203.47;;;2.66;100.00
47815;BME280;33579;50.058;18.130;2023-04-07T04:26:40;99198.28;;;2.66;100.00
47815;BME280;33579;50.058;18.130;2023-04-07T04:27:45;99204.16;;;2.70;100.00
47815;BME280;33579;50.058;18.130;2023-04-07T04:28:54;99204.66;;;2.61;100.00
47815;BME280;33579;50.058;18.130;2023-04-07T04:29:56;99200.03;;;2.50;100.00
47815;BME280;33579;50.058;18.130;2023-04-07T04:31:08;99200.03;;;2.50;100.00
47815;BME280;33579;50.058;18.130;2023-04-07T04:32:14;99196.75;;;2.46;100.00
47815;BME280;33579;50.058;18.130;2023-04-07T04:33:17;99201.09;;;2.46;100.00
47815;BME280;33579;50.058;18.130;2023-04-07T04:34:28;99194.16;;;2.46;100.00
47815;BME280;33579;50.058;18.130;2023-04-07T04:35:30;99197.44;;;2.50;100.00
47815;BME280;33579;50.058;18.130;2023-04-07T04:36:40;99196.41;;;2.52;100.00
47815;BME280;33579;50.058;18.130;2023-04-07T04:37:41;99197.84;;;2.58;100.00
47815;BME280;33579;50.058;18.130;2023-04-07T04:38:44;99196.75;;;2.46;100.00
47815;BME280;33579;50.058;18.130;2023-04-07T04:39:50;99209.41;;;2.52;100.00
47815;BME280;33579;50.058;18.130;2023-04-07T04:40:55;99203.13;;;2.41;100.00
47815;BME280;33579;50.058;18.130;2023-04-07T04:42:00;99202.19;;;2.42;100.00
47815;BME280;33579;50.058;18.130;2023-04-07T04:43:07;99204.38;;;2.49;100.00
47815;BME280;33579;50.058;18.130;2023-04-07T04:44:10;99211.44;;;2.47;100.00
47815;BME280;33579;50.058;18.130;2023-04-07T04:45:14;99213.09;;;2.48;100.00
47815;BME280;33579;50.058;18.130;2023-04-07T04:46:20;99207.06;;;2.32;100.00
47815;BME280;33579;50.058;18.130;2023-04-07T04:47:23;99215.84;;;2.29;100.00
47815;BME280;33579;50.058;18.130;2023-04-07T04:48:25;99210.41;;;2.34;100.00
47815;BME280;33579;50.058;18.130;2023-04-07T04:49:26;99208.78;;;2.31;100.00
47815;BME280;33579;50.058;18.130;2023-04-07T04:50:31;99213.91;;;2.33;100.00
47815;BME280;33579;50.058;18.130;2023-04-07T04:51:35;99201.38;;;2.41;100.00
47815;BME280;33579;50.058;18.130;2023-04-07T04:52:45;99203.28;;;2.37;100.00
47815;BME280;33579;50.058;18.130;2023-04-07T04:53:53;99210.72;;;2.28;100.00
47815;BME280;33579;50.058;18.130;2023-04-07T04:54:57;99207.22;;;2.29;100.00
47815;BME280;33579;50.058;18.130;2023-04-07T04:56:00;99207.63;;;2.37;100.00
47815;BME280;33579;50.058;18.130;2023-04-07T04:57:18;99203.69;;;2.46;100.00
47815;BME280;33579;50.058;18.130;2023-04-07T04:58:20;99205.31;;;2.48;100.00
47815;BME280;33579;50.058;18.130;2023-04-07T04:59:26;99206.72;;;2.38;100.00
47815;BME280;33579;50.058;18.130;2023-04-07T05:00:34;99203.28;;;2.37;100.00
47815;BME280;33579;50.058;18.130;2023-04-07T05:01:39;99210.56;;;2.47;100.00
47815;BME280;33579;50.058;18.130;2023-04-07T05:02:45;99211.69;;;2.59;100.00
47815;BME280;33579;50.058;18.130;2023-04-07T05:03:47;99212.50;;;2.59;100.00
47815;BME280;33579;50.058;18.130;2023-04-07T05:04:54;99212.69;;;2.56;100.00
47815;BME280;33579;50.058;18.130;2023-04-07T05:06:00;99214.28;;;2.59;100.00
47815;BME280;33579;50.058;18.130;2023-04-07T05:07:01;99217.59;;;2.45;100.00
47815;BME280;33579;50.058;18.130;2023-04-07T05:08:05;99210.66;;;2.45;100.00
47815;BME280;33579;50.058;18.130;2023-04-07T05:09:09;99213.78;;;2.52;100.00
47815;BME280;33579;50.058;18.130;2023-04-07T05:10:16;99212.44;;;2.61;100.00
47815;BME280;33579;50.058;18.130;2023-04-07T05:11:22;99216.78;;;2.44;100.00
47815;BME280;33579;50.058;18.130;2023-04-07T05:12:26;99209.50;;;2.51;100.00
47815;BME280;33579;50.058;18.130;2023-04-07T05:13:34;99209.47;;;2.35;100.00
47815;BME280;33579;50.058;18.130;2023-04-07T05:14:37;99206.13;;;2.33;100.00
47815;BME280;33579;50.058;18.130;2023-04-07T05:15:41;99202.84;;;2.29;100.00
47815;BME280;33579;50.058;18.130;2023-04-07T05:16:45;99207.63;;;2.37;100.00
47815;BME280;33579;50.058;18.130;2023-04-07T05:17:52;99209.69;;;2.48;100.00
47815;BME280;33579;50.058;18.130;2023-04-07T05:18:58;99209.50;;;2.51;100.00
47815;BME280;33579;50.058;18.130;2023-04-07T05:20:01;99211.13;;;2.53;100.00
47815;BME280;33579;50.058;18.130;2023-04-07T05:21:09;99207.19;;;2.62;100.00
47815;BME280;33579;50.058;18.130;2023-04-07T05:22:11;99218.56;;;2.60;100.00
47815;BME280;33579;50.058;18.130;2023-04-07T05:23:19;99222.00;;;2.60;100.00
47815;BME280;33579;50.058;18.130;2023-04-07T05:24:25;99223.50;;;2.64;100.00
47815;BME280;33579;50.058;18.130;2023-04-07T05:25:29;99221.72;;;2.65;100.00
47815;BME280;33579;50.058;18.130;2023-04-07T05:26:34;99220.06;;;2.64;100.00
47815;BME280;33579;50.058;18.130;2023-04-07T05:27:38;99217.56;;;2.62;100.00
47815;BME280;33579;50.058;18.130;2023-04-07T05:28:44;99222.91;;;2.59;100.00
47815;BME280;33579;50.058;18.130;2023-04-07T05:29:51;99212.63;;;2.58;100.00
47815;BME280;33579;50.058;18.130;2023-04-07T05:31:00;99215.78;;;2.63;100.00
47815;BME280;33579;50.058;18.130;2023-04-07T05:32:05;99224.03;;;2.71;100.00
47815;BME280;33579;50.058;18.130;2023-04-07T05:33:06;99229.91;;;2.75;100.00
47815;BME280;33579;50.058;18.130;2023-04-07T05:34:24;99220.97;;;2.63;100.00
47815;BME280;33579;50.058;18.130;2023-04-07T05:35:28;99227.75;;;2.49;100.00
47815;BME280;33579;50.058;18.130;2023-04-07T05:36:32;99229.59;;;2.47;100.00
47815;BME280;33579;50.058;18.130;2023-04-07T05:37:34;99226.00;;;2.50;100.00
47815;BME280;33579;50.058;18.130;2023-04-07T05:38:38;99221.81;;;2.47;100.00
47815;BME280;33579;50.058;18.130;2023-04-07T05:39:45;99216.44;;;2.50;100.00
47815;BME280;33579;50.058;18.130;2023-04-07T05:40:48;99223.06;;;2.56;100.00